Date,TemperatureHighF,TemperatureAvgF,TemperatureLowF,DewpointHighF,DewpointAvgF,DewpointLowF,HumidityHigh,HumidityAvg,HumidityLow,PressureMaxIn,PressureMinIn,WindSpeedMaxMPH,WindSpeedAvgMPH,GustSpeedMaxMPH,PrecipitationSumIn
2013-1-1,39.2,32.9,23.9,37.6,28.1,16.5,94,83,72,17.72,17.72,13,3,13,0.04
2013-1-2,43.5,32.1,19.9,29.1,21.6,13.3,76,66,53,17.72,17.72,10,2,10,0.00
2013-1-3,50.4,36.7,25.3,32.6,23.7,19.2,79,61,42,17.72,17.72,8,1,9,0.00
2013-1-4,52.0,38.9,25.2,30.2,22.9,17.2,78,54,39,17.72,17.72,13,2,13,0.00
2013-1-5,50.4,41.7,35.4,33.7,27.8,21.3,70,58,49,17.72,17.72,14,3,14,0.00
2013-1-6,51.3,40.0,27.7,27.9,21.9,16.6,70,50,37,17.72,17.72,11,1,11,0.00
2013-1-7,52.7,41.4,28.4,29.1,23.5,15.7,62,49,39,17.72,17.72,16,2,16,0.00
2013-1-8,44.1,37.4,35.8,26.6,24.4,23.0,61,59,51,17.72,17.72,9,1,9,0.00
2013-1-20,61.7,52.4,33.8,33.7,26.4,0.0,42,37,31,17.72,17.72,14,1,14,0.00
2013-1-21,43.9,34.5,24.6,19.7,13.3,8.4,51,41,35,17.72,17.72,11,0,11,0.00
2013-1-22,50.9,37.3,22.8,26.9,19.2,10.3,62,49,38,17.72,17.72,10,0,10,0.00
2013-1-23,62.2,47.8,32.5,39.3,31.0,20.6,65,53,41,17.72,17.72,6,0,6,0.00
2013-1-24,46.2,40.0,35.8,29.4,20.7,16.1,52,46,41,17.72,17.72,11,0,11,0.00
2013-1-25,49.5,41.2,34.5,27.9,22.9,19.1,55,48,40,17.72,17.72,8,0,8,0.00
2013-1-26,56.8,47.4,36.5,33.1,26.9,22.3,58,45,35,17.72,17.72,19,3,19,0.00
2013-1-27,60.6,53.3,46.4,56.6,48.6,31.1,94,84,54,17.72,17.72,26,5,26,0.00
2013-1-28,73.8,67.1,57.9,63.7,61.1,55.9,94,82,65,17.72,17.72,26,6,26,0.00
2013-1-29,68.9,58.4,44.1,63.2,54.4,40.4,97,87,77,17.72,17.72,20,3,20,1.42
2013-1-30,44.1,37.5,30.0,40.4,27.2,19.6,87,67,52,17.72,17.72,25,6,25,0.00
2013-1-31,56.5,36.4,23.7,33.2,21.3,8.0,71,55,40,17.72,17.72,22,5,22,0.00
2013-2-1,42.4,32.1,19.0,18.6,11.6,2.1,52,42,34,17.72,17.72,16,4,16,0.00
2013-2-2,58.3,45.7,30.9,32.1,25.6,16.8,58,46,36,17.72,17.72,13,3,13,0.00
2013-2-3,58.8,49.4,37.6,32.0,26.0,22.5,56,41,30,17.72,17.72,19,4,19,0.00
2013-2-4,70.7,56.1,43.7,40.6,31.9,25.5,55,40,30,17.72,17.72,17,4,17,0.00
2013-2-5,68.4,52.4,33.1,41.5,31.7,25.0,74,48,30,17.72,17.72,10,2,10,0.00
2013-2-6,65.1,54.1,42.3,46.5,36.8,27.8,67,52,44,17.72,17.72,22,7,22,0.00
2013-2-7,58.8,52.2,42.8,54.3,46.8,36.1,92,82,67,17.72,17.72,17,1,17,0.00
2013-2-8,50.5,42.7,35.1,36.8,32.4,29.5,80,68,51,17.72,17.72,17,3,17,0.00
2013-2-9,44.4,41.4,39.4,43.1,35.1,30.8,95,79,64,17.72,17.72,25,8,25,0.04
2013-2-10,65.3,53.7,42.3,52.8,37.0,22.5,100,60,29,17.72,17.72,23,8,23,0.04
2013-2-11,55.9,45.5,34.3,29.9,23.9,20.1,58,43,35,17.72,17.72,14,3,14,0.00
2013-2-12,44.2,39.8,35.8,35.9,28.0,20.7,85,64,43,17.72,17.72,14,5,14,0.28
2013-2-13,55.6,43.0,35.2,42.5,34.7,30.2,89,75,42,17.72,17.72,13,4,13,0.00
2013-2-14,54.7,50.5,46.4,30.6,28.7,26.6,47,43,38,17.72,17.72,22,4,22,0.00
2013-2-15,46.2,39.5,32.0,27.4,18.6,12.0,58,43,33,17.72,17.72,17,5,17,0.00
2013-2-16,50.4,38.9,25.5,24.2,16.7,10.5,62,41,30,17.72,17.72,15,5,15,0.00
2013-2-17,67.8,51.8,34.0,36.1,26.9,13.1,59,39,27,17.72,17.72,24,9,24,0.00
2013-2-18,62.8,54.3,39.4,49.7,35.4,20.8,70,50,35,17.72,17.72,27,3,27,0.00
2013-2-19,56.5,43.5,29.5,30.0,21.5,16.3,58,42,33,17.72,17.72,13,2,13,0.00
2013-2-20,39.0,35.9,32.9,32.2,25.0,14.7,91,67,41,17.72,17.72,13,2,13,0.20
2013-2-21,36.1,34.4,29.3,34.3,31.6,22.4,93,89,75,17.72,17.72,19,4,19,1.14
2013-2-22,43.7,33.1,22.8,25.8,19.5,15.1,75,58,45,17.72,17.72,14,3,14,0.00
2013-2-23,49.1,37.0,23.4,24.9,19.8,14.4,69,51,38,17.72,17.72,8,1,8,0.00
2013-2-24,57.9,46.3,32.2,35.8,28.8,19.9,69,51,39,17.72,17.72,24,6,24,0.00
2013-2-25,45.7,39.9,34.3,37.0,33.3,29.9,91,78,55,17.72,17.72,17,2,17,1.26
2013-2-26,41.2,36.9,33.8,34.2,32.1,28.8,93,83,73,17.72,17.72,22,3,22,0.28
2013-2-27,49.6,38.6,33.8,36.7,28.5,23.5,82,68,49,17.72,17.72,22,2,22,0.00
2013-2-28,50.4,40.1,29.8,31.4,26.5,23.4,77,59,46,17.72,17.72,15,1,15,0.00
2013-3-1,38.8,36.2,32.5,25.5,22.4,16.7,66,57,51,17.72,17.72,14,0,14,0.00
2013-3-2,48.6,39.4,27.0,24.4,19.2,13.7,57,45,37,17.72,17.72,13,0,13,0.00
2013-3-3,62.1,48.4,31.8,33.3,25.7,15.8,58,42,34,17.72,17.72,17,2,17,0.00
2013-3-4,71.8,58.2,46.4,42.9,36.2,28.5,62,45,32,17.72,17.72,22,1,22,0.00
2013-3-5,51.6,44.6,36.5,33.7,24.1,17.3,75,46,33,17.72,17.72,25,4,25,0.04
2013-3-6,54.9,43.0,27.9,27.0,21.0,13.8,56,42,33,17.72,17.72,0,0,0,0.00
2013-3-7,64.8,52.5,37.0,33.3,26.7,21.4,55,38,26,17.72,17.72,21,2,21,0.00
2013-3-8,58.6,53.4,47.1,40.6,33.6,26.1,61,47,37,17.72,17.72,17,1,17,0.00
2013-3-9,64.0,58.8,55.0,57.6,47.1,33.9,95,68,40,17.72,17.72,22,1,22,0.35
2013-3-10,56.3,44.0,33.4,54.1,37.5,23.3,93,78,66,17.72,17.72,21,1,21,0.04
2013-3-11,54.3,43.3,30.7,29.3,23.6,17.3,67,48,30,17.72,17.72,15,1,16,0.00
2013-3-12,61.7,49.2,38.7,41.0,27.9,17.0,79,45,31,17.72,17.72,17,1,17,0.00
2013-3-13,59.4,47.3,33.1,30.7,22.0,17.1,55,38,27,17.72,17.72,0,0,0,0.00
2013-3-14,79.2,61.2,42.4,43.6,33.0,21.1,49,35,27,17.72,17.72,17,2,17,0.00
2013-3-15,84.9,70.3,52.7,48.6,43.2,38.2,67,40,25,17.72,17.72,17,2,17,0.00
2013-3-16,78.3,67.1,55.8,47.6,43.3,36.9,54,42,34,17.72,17.72,15,0,15,0.00
2013-3-17,46.4,45.4,44.8,43.3,42.5,42.0,91,89,88,17.72,17.72,0,0,0,0.00
2013-3-18,59.5,49.2,40.8,43.7,35.7,23.1,91,65,35,17.72,17.72,15,0,15,0.00
2013-3-19,62.4,50.5,39.7,28.9,24.5,21.1,50,37,27,17.72,17.72,9,0,9,0.00
2013-3-20,55.2,45.7,35.1,33.3,24.1,16.3,72,45,29,17.72,17.72,15,0,15,0.00
2013-3-21,42.1,39.6,37.2,33.5,23.7,16.7,81,54,38,17.72,17.72,5,0,8,0.04
2013-3-22,47.8,42.2,37.6,38.4,35.8,33.1,87,78,68,17.72,17.72,6,0,6,0.08
2013-3-23,43.5,41.5,39.2,42.2,38.4,34.4,95,89,77,17.72,17.72,15,0,15,0.04
2013-3-24,66.2,37.8,31.1,37.6,27.0,16.1,92,68,32,17.72,17.72,21,3,21,0.08
2013-3-25,42.3,35.4,27.7,21.3,18.2,14.8,65,50,40,17.72,17.72,17,2,17,0.00
2013-3-26,54.0,41.7,25.5,27.3,20.5,14.1,63,44,32,17.72,17.72,10,0,10,0.00
2013-3-27,66.0,51.5,35.8,33.7,26.5,19.0,52,39,28,17.72,17.72,20,2,20,0.00
2013-3-28,72.5,60.9,48.0,48.7,39.0,26.1,61,45,36,17.72,17.72,17,1,17,0.00
2013-3-29,70.2,63.0,56.3,56.7,53.0,47.8,90,70,59,17.72,17.72,9,0,9,0.24
2013-3-30,58.5,56.7,55.2,56.1,54.2,52.3,95,91,90,17.72,17.72,14,0,14,0.87
2013-4-3,42.6,42.1,41.7,38.4,38.2,37.9,87,86,84,17.72,17.72,0,0,0,0.20
2013-4-4,62.2,51.4,40.6,44.3,37.3,33.6,88,62,37,17.72,17.72,11,0,11,0.28
2013-4-5,73.0,58.6,41.2,46.6,40.1,34.9,80,53,34,17.72,17.72,13,0,13,0.00
2013-4-6,79.0,66.6,55.8,49.6,46.6,41.0,69,50,34,17.72,17.72,27,3,27,0.00
2013-4-7,69.3,64.3,57.4,58.3,55.3,49.2,83,73,57,17.72,17.72,17,0,17,0.00
2013-4-8,72.7,66.9,62.6,62.2,59.6,56.7,95,78,66,17.72,17.72,16,0,16,0.00
2013-4-9,78.6,71.5,55.6,64.7,60.4,43.0,80,68,57,17.72,17.72,19,1,19,0.00
2013-4-10,55.4,42.3,37.9,43.2,36.4,32.0,87,80,63,17.72,17.72,20,1,20,0.55
2013-4-11,59.0,47.6,36.0,34.8,30.6,26.8,79,54,36,17.72,17.72,14,0,14,0.00
2013-4-12,64.8,53.4,37.9,35.6,32.1,28.9,71,46,33,17.72,17.72,10,0,10,0.00
2013-4-13,69.8,58.3,47.8,48.2,41.5,31.8,81,55,42,17.72,17.72,16,1,16,0.08
2013-4-14,80.4,69.1,56.3,54.5,48.1,43.0,67,48,35,17.72,17.72,26,2,26,0.04
2013-4-15,72.5,62.3,54.5,53.9,41.8,31.5,64,48,35,17.72,17.72,12,0,12,0.00
2013-4-16,59.7,53.8,50.7,50.2,46.0,40.2,85,75,62,17.72,17.72,10,0,10,0.00
2013-4-17,80.8,67.1,52.2,69.6,60.0,47.2,100,79,61,17.72,17.72,23,1,23,0.20
2013-4-27,0.0,0.0,0.0,0.0,0.0,0.0,0,0,100,17.72,17.72,10,0,10,0.00
2013-4-28,79.0,51.0,0.0,57.0,37.9,0.0,66,37,40,17.72,17.72,8,0,8,0.00
2013-4-29,88.5,74.6,59.5,63.9,55.2,49.4,87,55,31,17.72,17.72,19,3,19,0.00
2013-4-30,84.6,76.4,66.2,58.6,52.9,44.8,65,46,27,17.72,17.72,21,4,21,0.00
2013-5-1,85.8,74.7,63.5,64.3,57.8,45.3,80,57,39,17.72,17.72,16,1,16,0.00
2013-5-2,64.0,46.1,37.4,44.5,37.4,33.3,86,72,50,17.72,17.72,26,4,26,0.43
2013-5-3,61.2,50.9,37.6,38.4,32.7,27.4,86,54,31,17.72,17.72,22,3,22,0.00
2013-5-4,51.6,46.8,41.5,43.6,39.0,32.8,83,75,54,17.72,17.72,16,0,16,0.20
2013-5-5,61.0,52.7,46.0,50.1,45.9,39.9,91,78,66,17.72,17.72,7,0,8,0.00
2013-5-6,66.0,56.4,47.8,54.4,50.2,44.1,94,80,62,17.72,17.72,3,0,3,0.00
2013-5-7,77.4,65.6,50.2,58.2,51.0,46.4,92,63,36,17.72,17.72,3,0,3,0.00
2013-5-8,81.0,70.3,59.5,60.6,53.7,48.0,74,57,41,17.72,17.72,17,1,17,0.00
2013-5-9,76.1,67.7,60.6,65.6,61.6,57.0,92,82,61,17.72,17.72,20,0,20,0.87
2013-5-10,75.2,67.3,59.4,63.9,57.7,50.7,93,73,53,17.72,17.72,15,0,15,0.00
2013-5-11,81.9,66.6,52.9,59.4,48.5,35.3,85,56,32,17.72,17.72,17,0,17,0.00
2013-5-12,74.3,62.5,47.7,42.1,38.8,31.9,67,43,29,17.72,17.72,0,0,0,0.00
2013-5-13,87.1,73.4,55.2,55.5,49.4,41.9,68,45,29,17.72,17.72,13,0,13,0.00
2013-5-14,94.8,80.5,65.5,58.6,50.8,45.1,48,36,27,17.72,17.72,20,2,20,0.00
2013-5-15,77.0,71.3,65.5,67.7,60.8,48.6,96,71,42,17.72,17.72,17,1,17,0.43
2013-5-16,75.0,68.4,63.9,65.8,63.4,62.1,96,85,67,17.72,17.72,2,0,13,0.00
2013-5-17,80.6,71.6,62.1,69.1,65.4,60.8,97,82,64,17.72,17.72,8,0,8,0.04
2013-5-18,85.6,77.8,70.2,75.9,71.4,68.4,95,82,66,17.72,17.72,17,0,17,0.00
2013-5-19,83.5,76.0,67.1,70.9,67.0,62.5,89,74,64,17.72,17.72,24,1,24,0.08
2013-5-20,81.9,75.0,71.4,73.9,68.7,62.1,92,81,63,17.72,17.72,16,1,16,0.00
2013-5-21,65.7,62.1,59.2,63.3,59.3,57.2,94,90,85,17.72,17.72,23,3,23,0.39
2013-5-22,79.9,69.9,55.6,62.3,57.3,53.6,94,67,45,17.72,17.72,13,1,13,0.00
2013-5-23,68.0,64.7,61.3,61.6,58.2,54.2,91,80,68,17.72,17.72,15,2,15,0.00
2013-5-24,80.2,70.6,59.9,66.5,60.9,55.4,85,72,61,17.72,17.72,17,4,17,0.00
2013-5-25,84.6,74.7,65.5,68.3,62.3,55.3,83,66,52,17.72,17.72,20,8,20,0.00
2013-5-26,85.6,76.7,68.4,71.7,67.3,62.6,89,74,61,17.72,17.72,23,4,23,0.00
2013-5-27,87.6,78.3,68.9,70.8,67.2,61.9,92,70,55,17.72,17.72,0,0,0,0.00
2013-5-28,84.0,77.4,73.8,69.2,66.7,64.6,80,70,60,17.72,17.72,0,0,0,0.00
2013-5-29,78.8,75.0,68.4,68.2,66.0,62.2,82,74,69,17.72,17.72,0,0,0,0.00
2013-5-30,79.3,72.1,0.0,72.6,68.6,62.8,96,86,73,17.72,17.72,29,7,29,1.06
2013-5-31,81.3,76.7,70.9,73.0,70.6,67.4,96,82,76,17.72,17.72,17,0,17,0.00
2013-6-1,72.0,72.0,72.0,67.5,67.5,67.5,86,86,86,17.72,17.72,15,0,15,0.00
2013-6-2,72.0,72.0,72.0,67.5,67.5,67.5,86,86,86,17.72,17.72,9,0,9,0.00
2013-6-3,72.0,72.0,72.0,67.5,67.5,67.5,86,86,86,17.72,17.72,6,0,6,0.00
2013-6-4,72.0,72.0,72.0,67.5,67.5,67.5,86,86,86,17.72,17.72,14,0,14,0.31
2013-6-5,72.0,17.4,0.0,67.5,67.5,67.5,86,21,86,17.72,17.72,18,0,18,0.67
2013-6-6,0.0,0.0,0.0,67.5,67.5,67.5,0,0,100,17.72,17.72,11,0,11,0.00
2013-6-7,0.0,0.0,0.0,67.5,67.5,67.5,0,0,100,17.72,17.72,9,0,9,0.00
2013-6-8,0.0,0.0,0.0,67.5,67.5,67.5,0,0,100,17.72,17.72,13,0,13,0.00
2013-6-9,83.5,14.9,0.0,67.5,65.7,56.3,53,9,45,17.72,17.72,13,0,13,0.00
2013-6-10,96.6,85.0,70.9,71.8,65.5,57.0,79,54,37,17.72,17.72,11,0,11,0.00
2013-6-11,97.9,87.3,75.6,70.1,66.6,63.2,68,52,35,17.72,17.72,18,1,18,0.00
2013-6-12,96.3,87.0,76.1,72.0,69.2,66.9,79,57,39,17.72,17.72,23,2,23,0.00
2013-6-13,91.9,84.3,75.7,72.2,69.3,65.4,82,62,48,17.72,17.72,0,0,0,0.00
2013-6-14,95.0,85.1,73.2,77.2,72.0,67.0,83,66,50,17.72,17.72,7,0,7,0.00
2013-6-15,89.2,79.6,73.0,75.7,72.4,68.5,91,79,63,17.72,17.72,15,0,15,0.04
2013-6-16,92.3,79.4,71.4,77.2,70.8,64.7,93,76,56,17.72,17.72,13,0,15,0.00
2013-6-17,81.5,73.6,67.5,73.0,67.3,64.7,96,81,70,17.72,17.72,17,0,17,0.67
2013-6-18,87.6,78.1,66.9,73.4,66.0,60.2,93,69,41,17.72,17.72,0,0,0,0.00
2013-6-19,87.6,79.9,68.7,71.2,66.0,62.7,86,64,47,17.72,17.72,10,0,10,0.00
2013-6-20,91.4,82.3,72.1,76.2,70.8,65.4,84,69,56,17.72,17.72,15,0,15,0.00
2013-6-21,94.1,85.2,76.5,75.5,70.6,65.2,85,64,42,17.72,17.72,17,0,17,0.00
2013-6-22,92.3,83.8,74.1,73.2,68.5,63.9,85,62,42,17.72,17.72,15,0,15,0.00
2013-6-23,93.6,84.6,75.9,73.8,69.4,65.1,83,62,43,17.72,17.72,17,2,17,0.00
2013-6-24,92.5,83.6,75.2,72.7,69.0,65.4,82,63,44,17.72,17.72,20,8,23,0.00
2013-6-25,90.3,83.3,75.9,73.3,71.0,68.3,83,67,54,17.72,17.72,10,0,17,0.00
2013-6-26,96.8,87.2,76.3,76.7,72.7,68.2,79,63,49,17.72,17.72,12,2,12,0.00
2013-6-27,100.4,89.6,77.2,76.9,73.6,63.2,87,61,42,17.72,17.72,14,3,14,0.00
2013-6-28,96.3,87.3,75.9,72.8,65.2,55.7,75,49,33,17.72,17.72,14,3,14,0.00
2013-6-29,93.2,82.8,69.4,62.3,55.7,49.8,70,42,27,17.72,17.72,22,5,22,0.00
2013-6-30,86.7,77.8,67.3,57.7,54.2,50.5,67,45,33,17.72,17.72,20,5,20,0.00
2013-7-1,86.4,75.9,64.4,60.9,53.6,45.6,74,48,29,17.72,17.72,16,4,16,0.00
2013-7-2,88.2,75.7,61.2,58.6,51.3,46.3,71,45,29,17.72,17.72,15,2,15,0.00
2013-7-3,88.2,75.9,62.2,58.3,51.7,47.4,69,45,28,17.72,17.72,13,2,13,0.00
2013-7-4,91.8,79.0,66.0,63.3,57.1,49.3,69,48,31,17.72,17.72,16,4,16,0.00
2013-7-5,92.1,81.1,67.6,64.5,61.0,57.3,78,53,32,17.72,17.72,15,5,15,0.00
2013-7-6,88.7,80.0,71.2,66.1,62.5,59.1,70,56,43,17.72,17.72,17,6,17,0.00
2013-7-7,94.1,83.1,72.5,73.7,66.1,62.3,80,58,37,17.72,17.72,16,3,16,0.00
2013-7-8,96.8,85.9,74.3,75.0,69.0,65.8,76,58,41,17.72,17.72,16,5,18,0.00
2013-7-9,98.6,89.3,77.4,71.5,68.8,65.9,75,53,37,17.72,17.72,18,7,18,0.00
2013-7-10,101.8,90.9,78.3,74.0,67.6,63.7,68,48,30,17.72,17.72,15,1,15,0.00
2013-7-11,99.3,89.1,77.9,76.2,70.1,64.2,79,56,36,17.72,17.72,13,2,13,0.00
2013-7-12,94.8,87.0,76.3,72.2,68.9,64.6,80,56,41,17.72,17.72,15,4,15,0.00
2013-7-13,94.5,85.9,75.2,69.1,63.7,58.9,73,49,35,17.72,17.72,14,3,14,0.00
2013-7-14,90.0,80.6,73.6,65.5,62.0,57.0,70,54,36,17.72,17.72,19,3,19,0.00
2013-7-15,84.2,75.1,67.8,68.9,66.0,62.8,89,74,56,17.72,17.72,20,3,24,0.16
2013-7-16,90.3,79.6,70.7,73.9,70.2,65.6,93,74,45,17.72,17.72,15,2,15,0.00
2013-7-17,93.4,84.2,73.4,74.0,68.9,63.3,89,63,39,17.72,17.72,14,2,14,0.00
2013-7-18,97.9,87.0,74.1,74.5,68.8,64.0,84,58,36,17.72,17.72,15,2,15,0.00
2013-7-19,99.7,88.4,75.6,73.7,68.7,62.1,81,55,32,17.72,17.72,13,3,13,0.00
2013-7-20,97.9,87.2,74.8,73.9,68.2,63.0,76,55,34,17.72,17.72,19,5,19,0.00
2013-7-21,86.7,78.2,71.6,77.3,72.9,67.6,96,84,71,17.72,17.72,14,4,14,2.56
2013-7-22,97.7,85.6,76.8,76.4,73.1,68.7,84,67,47,17.72,17.72,19,3,19,0.00
2013-7-23,101.8,91.1,78.6,77.2,73.2,65.9,77,58,40,17.72,17.72,31,1,31,0.00
2013-7-24,88.9,81.5,71.4,73.0,70.2,66.9,91,70,51,17.72,17.72,21,2,21,0.00
2013-7-25,86.7,80.0,72.0,73.4,69.7,66.2,88,71,53,17.72,17.72,8,0,12,0.00
2013-7-26,79.5,76.1,70.7,73.4,70.2,64.4,89,82,75,17.72,17.72,6,0,10,0.43
2013-7-27,86.4,76.9,68.4,69.8,63.3,57.2,97,65,42,17.72,17.72,8,1,13,0.00
2013-7-28,86.2,76.4,68.4,69.8,63.1,57.2,76,64,49,17.72,17.72,9,2,15,0.16
2013-7-29,83.8,82.0,79.5,73.4,72.3,66.2,80,72,56,17.72,17.72,0,0,0,0.00
2013-7-30,90.7,81.6,72.3,86.0,74.9,71.6,98,82,56,17.72,17.72,10,1,15,0.94
2013-7-31,93.4,84.3,76.1,87.8,75.5,68.0,98,77,55,17.72,17.72,8,1,14,0.00
2013-8-1,92.5,83.1,72.3,78.8,67.1,60.8,98,61,39,17.72,17.72,5,0,8,0.00
2013-8-2,91.8,82.6,76.1,89.6,76.5,64.4,98,83,59,17.72,17.72,12,1,15,0.00
2013-8-3,83.7,78.3,74.5,78.8,76.3,71.6,98,93,71,17.72,17.72,8,0,12,0.24
2013-8-4,84.9,79.5,75.6,82.4,78.6,75.2,98,97,95,17.72,17.72,2,0,9,0.00
2013-8-5,98.8,86.8,75.0,89.6,76.4,71.6,98,74,45,17.72,17.72,10,0,16,0.00
2013-8-6,96.4,86.8,77.0,77.0,72.2,68.0,85,63,46,17.72,17.72,4,0,13,0.00
2013-8-7,90.5,84.6,79.7,78.8,73.8,68.0,83,70,60,17.72,17.72,0,0,8,0.11
2013-8-8,86.4,80.5,72.9,80.6,75.1,71.6,98,85,63,17.72,17.72,6,0,11,0.12
2013-8-9,85.5,77.3,71.2,82.4,75.2,71.6,98,92,65,17.72,17.72,11,0,15,0.75
2013-8-10,84.7,76.7,69.1,80.6,71.5,66.2,98,85,61,17.72,17.72,0,0,4,0.00
2013-8-11,90.0,81.3,73.0,86.0,73.4,66.2,98,78,52,17.72,17.72,0,0,0,0.00
2013-8-12,82.6,78.3,74.7,80.6,77.2,71.6,98,96,77,17.72,17.72,0,0,5,0.00
2013-8-13,82.9,75.6,72.1,80.6,75.6,71.6,98,98,96,17.72,17.72,3,0,8,0.04
2013-8-14,84.6,75.8,67.1,77.0,66.0,59.0,98,74,47,17.72,17.72,0,0,0,0.00
2013-8-15,70.9,69.9,68.9,60.8,59.1,59.0,70,68,66,17.72,17.72,0,0,0,0.00
2013-8-17,83.5,71.3,0.0,60.7,58.5,0.0,66,62,44,17.72,17.72,0,0,0,0.00
2013-8-18,88.5,77.1,0.0,68.1,61.6,58.1,81,60,41,17.72,17.72,12,1,12,0.00
2013-8-19,88.9,78.9,68.9,68.8,65.1,61.5,95,64,45,17.72,17.72,13,3,13,0.00
2013-8-20,90.1,80.3,69.8,71.2,65.8,61.2,100,63,42,17.72,17.72,13,4,13,0.00
2013-8-21,94.1,82.8,70.7,71.5,66.0,62.5,87,59,37,17.72,17.72,11,5,11,0.00
2013-8-22,93.0,84.2,73.8,73.6,67.5,62.5,73,58,38,17.72,17.72,10,4,10,0.00
2013-8-23,93.9,84.2,74.5,74.1,69.2,65.6,78,62,43,17.72,17.72,17,4,17,0.00
2013-8-24,93.9,83.9,74.1,80.4,71.3,67.2,100,68,46,17.72,17.72,13,4,13,0.00
2013-8-25,80.8,77.1,74.5,77.9,70.1,67.3,100,80,65,17.72,17.72,10,4,10,0.00
2013-8-26,94.3,87.1,0.0,78.3,70.1,66.1,100,57,43,17.72,17.72,21,5,21,0.00
2013-8-27,94.3,83.9,72.7,70.1,66.9,63.7,74,58,38,17.72,17.72,15,5,15,0.00
2013-8-28,95.7,85.9,75.0,72.3,69.7,67.3,86,60,43,17.72,17.72,16,4,16,0.00
2013-8-29,99.0,88.1,77.4,73.9,68.7,65.4,75,55,36,17.72,17.72,10,3,10,0.00
2013-8-30,99.9,89.7,77.5,72.4,67.9,64.5,72,51,33,17.72,17.72,11,4,11,0.00
2013-8-31,101.1,90.3,78.6,71.6,67.3,63.2,68,49,31,17.72,17.72,10,4,11,0.00
2013-9-1,92.8,84.8,0.0,74.5,69.2,63.5,70,59,50,17.72,17.72,14,3,15,0.00
2013-9-2,90.5,81.5,71.6,71.6,63.5,58.5,84,56,39,17.72,17.72,13,3,13,0.00
2013-9-3,89.8,79.3,66.4,68.9,60.2,55.8,77,54,35,17.72,17.72,13,2,13,0.00
2013-9-4,92.5,81.1,67.3,70.3,61.8,56.7,72,53,35,17.72,17.72,9,2,9,0.00
2013-9-5,92.7,82.3,70.2,64.2,61.4,58.3,71,51,33,17.72,17.72,11,2,11,0.00
2013-9-6,92.8,82.7,71.1,65.4,61.6,58.9,71,51,33,17.72,17.72,9,4,12,0.00
2013-9-7,97.5,86.3,73.8,65.9,61.0,58.4,60,44,29,17.72,17.72,13,4,13,0.00
2013-9-8,101.1,88.9,76.1,67.7,62.6,57.2,66,44,28,17.72,17.72,15,4,15,0.00
2013-9-9,99.7,86.8,72.5,67.4,61.2,55.7,70,44,29,17.72,17.72,21,4,21,0.00
2013-9-10,96.1,85.2,74.1,67.0,61.7,56.7,66,47,31,17.72,17.72,17,4,17,0.00
2013-9-11,84.4,79.5,75.6,62.2,60.1,58.6,63,52,42,17.72,17.72,5,0,5,0.00
2013-9-12,96.4,84.5,73.6,69.5,66.0,59.6,75,56,37,17.72,17.72,17,3,17,0.00
2013-9-13,86.2,76.9,69.8,67.1,55.7,46.3,73,50,31,17.72,17.72,13,4,13,0.00
2013-9-14,86.0,75.6,62.8,57.3,53.3,49.0,67,47,35,17.72,17.72,13,4,13,0.00
2013-9-15,90.7,79.9,67.5,65.6,56.6,48.0,56,45,35,17.72,17.72,18,5,18,0.00
2013-9-16,83.3,76.2,70.9,77.5,67.8,63.5,100,77,55,17.72,17.72,11,4,14,0.00
2013-9-17,79.2,73.2,69.3,77.0,69.3,54.7,100,90,44,17.72,17.72,11,2,11,0.00
2013-9-18,92.8,81.2,73.2,78.4,70.0,63.5,100,73,43,17.72,17.72,24,4,24,0.00
2013-9-19,95.4,81.2,73.4,77.4,69.4,63.4,100,71,42,17.72,17.72,20,7,20,0.00
2013-9-20,70.0,66.0,61.7,55.5,54.8,53.3,74,67,58,17.72,17.72,4,0,4,0.00
2013-9-21,80.8,69.3,56.3,58.4,53.2,47.6,89,59,36,17.72,17.72,10,1,10,0.00
2013-9-22,80.2,70.4,58.3,53.2,48.6,44.6,72,48,31,17.72,17.72,13,2,13,0.00
2013-9-23,80.2,70.7,58.3,55.7,51.5,48.6,74,52,34,17.72,17.72,17,6,17,0.00
2013-9-24,84.7,74.0,63.1,57.6,55.1,52.8,70,53,39,17.72,17.72,15,4,15,0.00
2013-9-25,85.8,73.6,59.4,62.1,56.6,52.3,78,57,37,17.72,17.72,9,1,9,0.00
2013-9-26,89.4,77.2,64.2,60.5,58.1,56.4,77,54,34,17.72,17.72,18,7,18,0.00
2013-9-27,89.1,79.0,67.6,62.4,58.4,54.4,73,51,32,17.72,17.72,24,7,24,0.00
2013-9-28,76.3,69.3,58.8,70.9,61.7,55.4,100,78,55,17.72,17.72,19,3,19,0.00
2013-9-29,74.7,64.5,55.8,70.9,54.3,47.6,100,74,40,17.72,17.72,10,0,10,0.00
2013-9-30,82.2,70.0,55.2,62.0,54.7,48.7,82,61,34,17.72,17.72,0,0,0,0.00
2013-10-1,85.1,75.4,67.1,80.0,66.5,57.9,100,77,41,17.72,17.72,11,0,11,0.00
2013-10-2,85.8,76.6,69.6,81.5,69.7,64.8,100,82,55,17.72,17.72,13,0,13,0.00
2013-10-3,85.5,77.0,70.0,82.0,71.1,66.3,100,84,59,17.72,17.72,16,0,16,0.00
2013-10-4,87.8,79.1,71.6,82.2,70.0,63.9,100,77,50,17.72,17.72,18,1,18,0.00
2013-10-5,77.2,61.0,53.8,64.7,46.7,39.5,80,60,40,17.72,17.72,11,0,11,0.16
2013-10-6,70.3,60.5,49.3,44.6,41.4,36.3,69,51,35,17.72,17.72,11,0,11,0.00
2013-10-7,75.0,62.8,47.3,44.6,41.5,36.6,68,48,32,17.72,17.72,0,0,0,0.00
2013-10-8,74.5,64.6,53.8,49.2,46.0,41.9,75,53,34,17.72,17.72,11,0,11,0.00
2013-10-9,76.8,66.3,54.0,54.7,50.2,45.9,77,57,43,17.72,17.72,9,0,9,0.00
2013-10-10,63.3,61.8,59.9,50.3,49.6,49.0,70,64,61,17.72,17.72,0,0,0,0.00
2013-10-11,80.2,63.1,0.0,71.4,54.1,0.0,100,60,54,17.72,17.72,17,0,17,0.00
2013-10-12,73.6,68.1,58.6,71.2,55.5,47.9,100,67,45,17.72,17.72,10,0,10,0.00
2013-10-13,75.0,67.4,61.7,60.2,51.9,45.6,67,58,52,17.72,17.72,0,0,0,0.00
2013-10-14,66.0,63.1,59.2,64.9,58.5,51.8,100,86,67,17.72,17.72,3,0,3,0.00
2013-10-15,66.6,60.3,55.4,66.6,53.1,42.7,100,79,52,17.72,17.72,10,0,10,0.00
2013-10-16,64.2,56.3,45.7,46.2,41.1,-9.6,76,59,5,17.72,17.72,4,0,4,0.00
2013-10-17,70.7,57.9,44.6,47.8,39.9,-14.7,79,58,3,17.72,17.72,0,0,0,0.00
2013-10-18,62.1,50.3,43.2,45.8,41.6,36.8,79,72,52,17.72,17.72,10,0,10,0.00
2013-10-19,65.1,52.4,36.7,42.6,36.0,-8.7,79,57,5,17.72,17.72,2,0,2,0.00
2013-10-20,71.1,58.6,43.7,44.2,39.2,36.0,75,51,33,17.72,17.72,17,0,17,0.00
2013-10-21,59.5,54.4,47.5,45.8,40.0,35.5,72,59,43,17.72,17.72,0,0,0,0.00
2013-10-22,72.5,59.4,48.0,47.3,39.7,35.6,62,50,34,17.72,17.72,0,0,0,0.00
2013-10-23,67.6,62.1,44.2,42.7,40.1,31.1,65,45,37,17.72,17.72,0,0,0,0.00
2013-10-24,60.1,52.1,45.1,40.9,34.9,27.2,75,53,39,17.72,17.72,0,0,0,0.00
2013-10-25,60.4,50.7,39.2,36.0,30.5,26.5,63,47,35,17.72,17.72,0,0,0,0.00
2013-10-26,65.3,56.2,47.7,52.6,45.4,36.0,77,67,60,17.72,17.72,0,0,0,0.00
2013-10-27,70.9,57.5,42.1,48.1,37.4,31.2,75,50,28,17.72,17.72,9,1,9,0.00
2013-10-28,69.1,61.2,53.8,56.0,52.3,46.0,85,73,57,17.72,17.72,17,6,17,0.00
2013-10-29,73.2,67.3,61.3,73.2,66.7,55.6,100,98,81,17.72,17.72,25,6,25,0.00
2013-10-30,69.8,67.1,64.4,69.8,67.1,64.4,100,100,100,17.72,17.72,19,0,19,0.00
2013-10-31,73.0,63.0,53.1,70.9,50.5,-14.1,100,80,3,17.72,17.72,19,5,19,0.00
2013-11-1,74.8,59.8,47.7,48.8,30.3,-20.3,92,51,2,17.72,17.72,17,2,17,0.00
2013-11-2,64.4,54.4,44.8,40.7,35.4,31.0,68,50,35,17.72,17.72,24,3,24,0.00
2013-11-3,62.4,53.6,41.4,40.9,37.1,31.4,77,55,39,17.72,17.72,30,8,30,0.00
2013-11-4,68.2,58.4,51.4,57.2,49.5,40.6,100,73,56,17.72,17.72,21,6,21,0.00
2013-11-5,63.0,59.2,55.9,62.1,46.5,-10.0,100,83,5,17.72,17.72,22,8,22,0.00
2013-11-6,62.8,47.4,39.2,57.9,38.2,-10.9,100,77,5,17.72,17.72,23,5,23,0.08
2013-11-7,65.3,52.2,35.8,48.7,22.1,-12.7,100,52,4,17.72,17.72,6,1,8,0.00
2013-11-8,51.4,44.8,42.1,40.0,36.4,34.9,79,72,60,17.72,17.72,8,1,8,0.00
2013-11-13,42.3,39.4,0.0,20.3,19.1,0.0,45,41,41,17.72,17.72,11,1,11,0.00
2013-11-14,39.7,37.0,34.7,20.5,19.9,19.4,54,50,45,17.72,17.72,8,1,8,0.00
2013-11-15,54.7,53.1,52.3,54.7,51.9,48.3,100,96,85,17.72,17.72,0,0,0,0.00
2013-11-16,72.1,63.8,54.5,72.1,63.0,54.5,100,97,77,17.72,17.72,28,4,28,0.00
2013-11-17,79.7,68.0,51.6,71.8,36.8,-20.0,100,48,2,17.72,17.72,0,0,0,0.00
2013-11-18,65.5,55.2,41.9,38.6,28.1,20.7,55,36,24,17.72,17.72,15,2,15,0.00
2013-11-19,58.5,53.8,49.8,29.6,26.5,24.3,40,35,28,17.72,17.72,0,0,0,0.00
2013-11-20,59.0,53.8,45.5,45.1,33.7,24.7,61,47,36,17.72,17.72,20,2,20,0.00
2013-11-21,58.6,50.7,36.7,57.0,48.7,36.7,100,94,58,17.72,17.72,23,2,23,0.00
2013-11-22,36.9,33.8,31.8,36.7,30.9,28.2,100,89,77,17.72,17.72,0,0,0,0.00
2013-11-23,39.6,34.5,27.9,30.4,23.0,11.1,88,64,49,17.72,17.72,18,7,18,0.00
2013-11-24,32.7,28.3,23.5,17.5,13.1,9.5,57,53,49,17.72,17.72,17,2,17,0.00
2013-11-25,39.2,35.2,31.1,31.9,24.9,15.9,82,66,50,17.72,17.72,6,0,6,0.00
2013-11-26,37.9,37.7,37.4,31.7,31.1,30.4,79,77,74,17.72,17.72,6,0,6,0.00
2013-11-28,50.4,43.3,0.0,26.4,23.8,0.0,52,45,39,17.72,17.72,8,1,8,0.00
2013-11-29,55.6,45.0,32.7,31.0,25.2,20.6,65,47,35,17.72,17.72,17,5,17,0.00
2013-11-30,61.0,50.0,39.4,46.5,37.5,25.7,89,63,51,17.72,17.72,17,4,17,0.00
2013-12-1,54.3,49.4,44.1,54.3,49.3,44.1,100,100,90,17.72,17.72,5,0,6,0.00
2013-12-2,60.3,51.2,46.2,59.7,50.5,46.2,100,98,73,17.72,17.72,11,2,11,0.00
2013-12-3,57.0,50.7,45.5,57.0,50.7,45.5,100,100,100,17.72,17.72,13,2,13,0.00
2013-12-4,51.1,43.9,31.8,51.1,42.8,24.5,100,96,75,17.72,17.72,17,3,17,0.00
2013-12-5,32.0,26.6,23.0,24.5,15.9,12.8,75,64,55,17.72,17.72,23,8,23,0.00
2013-12-6,26.2,21.5,16.0,17.9,13.4,3.4,88,72,56,17.72,17.72,20,7,20,0.00
2013-12-7,24.3,18.6,10.8,10.2,5.6,-0.8,60,56,52,17.72,17.72,17,6,17,0.00
2013-12-14,37.9,33.2,0.0,36.7,29.7,0.0,100,86,76,17.72,17.72,20,3,20,0.00
2013-12-15,56.3,41.8,24.6,39.1,30.5,22.4,100,67,47,17.72,17.72,14,4,14,0.00
2013-12-16,65.1,52.3,39.2,40.2,32.1,27.8,64,47,35,17.72,17.72,13,4,13,0.00
2013-12-17,59.0,48.6,35.4,37.4,29.8,25.2,69,49,37,17.72,17.72,13,2,13,0.00
2013-12-18,65.8,53.4,40.3,40.4,33.4,26.3,58,47,36,17.72,17.72,25,8,25,0.00
2013-12-19,61.7,57.0,51.1,61.2,53.3,39.9,100,88,58,17.72,17.72,0,0,0,0.00
2013-12-20,60.1,40.8,30.6,60.1,35.6,22.8,100,82,65,17.72,17.72,17,0,17,0.00
2013-12-21,34.3,33.5,0.0,34.3,33.9,29.5,100,99,100,17.72,0.00,0,0,0,0.00
2013-12-22,34.2,31.6,28.9,34.2,31.6,28.9,100,100,100,17.72,17.72,0,0,0,0.00
2013-12-23,32.7,27.4,24.6,30.2,25.4,21.3,100,93,84,17.72,17.72,0,0,0,0.00
2013-12-24,64.0,35.2,24.8,42.3,25.4,21.8,88,74,34,17.72,17.72,14,2,14,0.00
2013-12-25,45.0,36.5,30.0,37.8,31.1,25.8,89,81,73,17.72,17.72,12,2,12,0.00
2013-12-26,49.3,38.6,24.4,40.1,31.7,21.1,96,77,64,17.72,17.72,11,3,11,0.00
2013-12-27,59.2,46.6,31.8,38.0,30.9,24.8,76,56,40,17.72,17.72,15,5,15,0.00
2013-12-28,58.3,47.1,35.1,40.8,32.8,26.4,79,58,45,17.72,17.72,16,6,16,0.00
2013-12-29,45.5,33.2,23.4,37.7,20.6,6.1,75,60,47,17.72,17.72,27,2,27,0.00
2013-12-30,38.7,28.8,16.2,18.1,11.1,2.7,55,47,42,17.72,17.72,9,1,9,0.00
2013-12-31,55.2,39.9,24.4,29.0,20.5,12.3,64,47,33,17.72,17.72,26,5,26,0.00
2014-1-1,54.3,40.2,21.0,33.2,24.3,10.0,70,53,44,17.72,17.72,28,5,28,0.00
2014-1-2,34.3,25.3,14.5,14.7,9.6,2.6,63,52,43,17.72,17.72,17,1,22,0.00